Time;durP1;ratioP1;P1;durP2;ratioP2;P2;SDS_P1;SDS_P2;PMS_P1;PMS_P2;Temp;Humidity;BMP_temperature;BMP_pressure;BME280_temperature;BME280_humidity;BME280_pressure;Samples;Min_cycle;Max_cycle;Signal;HPM_P1;HPM_P2
2022/06/21 00:00:00;;;;;;;0.80;0.80;;;;;;;;;;5012876;28;20486;-74
2022/06/21 00:02:26;;;;;;;0.70;0.70;;;;;;;;;;4994777;28;20030;-74
2022/06/21 00:04:51;;;;;;;1.10;0.70;;;;;;;;;;5013646;28;20022;-67
2022/06/21 00:07:20;;;;;;;0.80;0.80;;;;;;;;;;5012840;28;20472;-67
2022/06/21 00:09:45;;;;;;;0.77;0.77;;;;;;;;;;5013845;28;20336;-67
2022/06/21 00:12:12;;;;;;;0.93;0.80;;;;;;;;;;5013821;28;20037;-67
2022/06/21 00:14:37;;;;;;;0.70;0.70;;;;;;;;;;4994106;28;20030;-67
2022/06/21 00:17:03;;;;;;;0.70;0.70;;;;;;;;;;5011196;28;20100;-68
2022/06/21 00:19:30;;;;;;;0.95;0.90;;;;;;;;;;5015517;28;20108;-67
2022/06/21 00:21:56;;;;;;;0.88;0.88;;;;;;;;;;5015786;28;20041;-67
2022/06/21 00:24:21;;;;;;;0.90;0.90;;;;;;;;;;5015258;28;20101;-68
2022/06/21 00:26:47;;;;;;;2.83;0.77;;;;;;;;;;5015258;28;20034;-68
2022/06/21 00:29:12;;;;;;;0.70;0.70;;;;;;;;;;4994083;28;20550;-68
2022/06/21 00:31:40;;;;;;;2.75;0.75;;;;;;;;;;4995448;28;20125;-68
2022/06/21 00:34:16;;;;;;;1.90;0.98;;;;;;;;;;4994289;28;20030;-68
2022/06/21 00:36:42;;;;;;;0.80;0.80;;;;;;;;;;4995510;28;20117;-68
2022/06/21 00:39:11;;;;;;;0.95;0.95;;;;;;;;;;4995600;28;20476;-68
2022/06/21 00:41:36;;;;;;;1.42;0.80;;;;;;;;;;4995285;28;20113;-68
2022/06/21 00:44:03;;;;;;;1.52;1.00;;;;;;;;;;4996440;28;20523;-68
2022/06/21 00:46:46;;;;;;;1.10;1.10;;;;;;;;;;4995594;28;20081;-68
2022/06/21 00:49:22;;;;;;;1.40;1.30;;;;;;;;;;4996602;28;20058;-67
2022/06/21 00:51:48;;;;;;;1.45;1.15;;;;;;;;;;4997429;28;20053;-66
2022/06/21 00:54:46;;;;;;;1.80;1.20;;;;;;;;;;4997535;28;20029;-67
2022/06/21 00:57:13;;;;;;;0.90;0.90;;;;;;;;;;4943429;28;20057;-67
2022/06/21 00:59:39;;;;;;;1.05;0.95;;;;;;;;;;4994974;28;20041;-67
2022/06/21 01:02:18;;;;;;;1.00;1.00;;;;;;;;;;4994230;28;20034;-67
2022/06/21 01:04:48;;;;;;;1.05;1.05;;;;;;;;;;4994534;28;20034;-67
2022/06/21 01:07:13;;;;;;;1.52;1.05;;;;;;;;;;4995070;28;20038;-67
2022/06/21 01:10:03;;;;;;;2.28;1.10;;;;;;;;;;4994829;28;20034;-68
2022/06/21 01:12:31;;;;;;;1.13;1.08;;;;;;;;;;4984689;28;20085;-68
2022/06/21 01:15:05;;;;;;;1.05;1.00;;;;;;;;;;4994802;28;20030;-68
2022/06/21 01:17:30;;;;;;;2.67;0.98;;;;;;;;;;4994838;28;20423;-68
2022/06/21 01:20:06;;;;;;;2.47;1.08;;;;;;;;;;4993476;28;20030;-68
2022/06/21 01:22:37;;;;;;;2.10;0.85;;;;;;;;;;4994230;28;20035;-68
2022/06/21 01:25:17;;;;;;;1.95;1.40;;;;;;;;;;4993926;28;20062;-68
2022/06/21 01:27:42;;;;;;;1.00;1.00;;;;;;;;;;4976652;28;20062;-74
2022/06/21 01:30:08;;;;;;;1.60;1.38;;;;;;;;;;4993002;28;20101;-67
2022/06/21 01:32:34;;;;;;;1.10;1.10;;;;;;;;;;4996160;28;20114;-68
2022/06/21 01:35:01;;;;;;;1.20;1.20;;;;;;;;;;4995737;28;20388;-68
2022/06/21 01:37:28;;;;;;;2.08;1.13;;;;;;;;;;4993184;28;20034;-69
2022/06/21 01:40:05;;;;;;;1.33;1.20;;;;;;;;;;4994626;28;20117;-68
2022/06/21 01:42:42;;;;;;;1.30;1.20;;;;;;;;;;4995109;28;20070;-68
2022/06/21 01:45:09;;;;;;;1.85;1.23;;;;;;;;;;4996336;28;20034;-70
2022/06/21 01:47:46;;;;;;;3.28;1.30;;;;;;;;;;4993610;28;20109;-70
2022/06/21 01:50:11;;;;;;;1.63;1.58;;;;;;;;;;4992798;28;20556;-70
2022/06/21 01:52:40;;;;;;;1.50;1.35;;;;;;;;;;4993619;28;20101;-70
2022/06/21 01:55:07;;;;;;;1.38;1.30;;;;;;;;;;4992274;28;20548;-68
2022/06/21 01:57:33;;;;;;;2.15;1.23;;;;;;;;;;4993628;28;20508;-69
2022/06/21 02:00:03;;;;;;;1.20;1.20;;;;;;;;;;4993475;28;20042;-69
2022/06/21 02:02:33;;;;;;;1.33;1.23;;;;;;;;;;4993724;28;20060;-70
2022/06/21 02:05:01;;;;;;;1.20;1.20;;;;;;;;;;4992531;28;20030;-69
2022/06/21 02:07:35;;;;;;;1.33;1.17;;;;;;;;;;4992531;28;20034;-69
2022/06/21 02:10:05;;;;;;;1.60;1.50;;;;;;;;;;4992550;28;20479;-69
2022/06/21 02:12:32;;;;;;;1.25;1.25;;;;;;;;;;4993593;28;20080;-69
2022/06/21 02:14:58;;;;;;;1.33;1.33;;;;;;;;;;4993507;28;20072;-68
2022/06/21 02:17:25;;;;;;;3.08;1.60;;;;;;;;;;4995081;28;20023;-68
2022/06/21 02:20:02;;;;;;;2.47;1.42;;;;;;;;;;4995769;28;20037;-68
2022/06/21 02:22:28;;;;;;;1.58;1.48;;;;;;;;;;4995756;28;20035;-68
2022/06/21 02:24:54;;;;;;;1.77;1.50;;;;;;;;;;4996072;28;20026;-67
2022/06/21 02:27:21;;;;;;;1.45;1.45;;;;;;;;;;4995658;28;20084;-67
2022/06/21 02:29:50;;;;;;;1.33;1.20;;;;;;;;;;5003180;28;20050;-68
2022/06/21 02:32:23;;;;;;;2.25;1.38;;;;;;;;;;4997674;28;20477;-68
2022/06/21 02:34:51;;;;;;;1.48;1.40;;;;;;;;;;5015064;28;20030;-68
2022/06/21 02:37:16;;;;;;;1.50;1.40;;;;;;;;;;5012728;28;20026;-68
2022/06/21 02:39:42;;;;;;;1.80;1.70;;;;;;;;;;5012575;28;20088;-68
2022/06/21 02:42:17;;;;;;;1.42;1.42;;;;;;;;;;5011538;28;20040;-68
2022/06/21 02:44:48;;;;;;;1.20;1.20;;;;;;;;;;5012415;28;20522;-68
2022/06/21 02:47:16;;;;;;;1.88;1.48;;;;;;;;;;5012543;28;20060;-68
2022/06/21 02:49:45;;;;;;;2.85;1.38;;;;;;;;;;5012189;28;20486;-69
2022/06/21 02:52:16;;;;;;;1.38;1.30;;;;;;;;;;5012404;28;20030;-68
2022/06/21 02:55:04;;;;;;;1.48;1.38;;;;;;;;;;5012424;28;20038;-69
2022/06/21 02:57:37;;;;;;;2.03;1.58;;;;;;;;;;5011443;28;20038;-69
2022/06/21 03:00:04;;;;;;;1.58;1.48;;;;;;;;;;5012430;28;20088;-68
2022/06/21 03:02:31;;;;;;;1.88;1.77;;;;;;;;;;5012126;28;20474;-69
2022/06/21 03:04:59;;;;;;;1.85;1.70;;;;;;;;;;5012372;28;20499;-69
2022/06/21 03:07:30;;;;;;;3.47;1.88;;;;;;;;;;4994927;28;20108;-69
2022/06/21 03:09:56;;;;;;;1.83;1.73;;;;;;;;;;5012209;28;20569;-69
2022/06/21 03:12:23;;;;;;;2.00;1.60;;;;;;;;;;5012236;28;20117;-69
2022/06/21 03:14:51;;;;;;;2.58;1.92;;;;;;;;;;5012104;28;20431;-68
2022/06/21 03:17:18;;;;;;;2.10;1.92;;;;;;;;;;4978103;28;20033;-68
2022/06/21 03:19:46;;;;;;;2.78;1.83;;;;;;;;;;4994755;28;20042;-70
2022/06/21 03:22:16;;;;;;;2.78;2.00;;;;;;;;;;5012455;28;20076;-68
2022/06/21 03:24:42;;;;;;;1.55;1.55;;;;;;;;;;5012016;28;20022;-67
2022/06/21 03:27:15;;;;;;;2.65;1.83;;;;;;;;;;5009846;28;20029;-75
2022/06/21 03:29:40;;;;;;;4.22;2.03;;;;;;;;;;5008414;28;20453;-75
2022/06/21 03:32:06;;;;;;;1.90;1.80;;;;;;;;;;5011269;28;20112;-74
2022/06/21 03:34:32;;;;;;;1.70;1.60;;;;;;;;;;4977165;28;20034;-74
2022/06/21 03:36:59;;;;;;;2.20;2.03;;;;;;;;;;5011142;28;20112;-75
2022/06/21 03:42:11;;;;;;;2.40;1.73;;;;;;;;;;5010866;28;20044;-75
2022/06/21 03:44:41;;;;;;;1.67;1.58;;;;;;;;;;5011238;28;20496;-75
2022/06/21 03:47:09;;;;;;;1.70;1.60;;;;;;;;;;5011194;28;20022;-75
2022/06/21 03:49:39;;;;;;;1.73;1.63;;;;;;;;;;5010964;28;20022;-75
2022/06/21 03:52:12;;;;;;;1.80;1.70;;;;;;;;;;5009568;28;20550;-76
2022/06/21 03:54:47;;;;;;;1.80;1.70;;;;;;;;;;5009733;28;20042;-75
2022/06/21 03:57:20;;;;;;;2.33;1.80;;;;;;;;;;5009674;28;20120;-75
2022/06/21 03:59:55;;;;;;;1.95;1.65;;;;;;;;;;5009618;28;20033;-75
2022/06/21 04:02:36;;;;;;;2.15;2.03;;;;;;;;;;5009658;28;20154;-75
2022/06/21 04:05:10;;;;;;;1.60;1.50;;;;;;;;;;5012350;28;20061;-74
2022/06/21 04:07:41;;;;;;;2.88;1.73;;;;;;;;;;5012951;28;20053;-75
2022/06/21 04:10:19;;;;;;;1.40;1.40;;;;;;;;;;5012819;28;20026;-75
2022/06/21 04:13:08;;;;;;;3.58;2.20;;;;;;;;;;5010160;28;20041;-75
2022/06/21 04:15:44;;;;;;;2.33;2.13;;;;;;;;;;5007178;28;20133;-75
2022/06/21 04:18:21;;;;;;;2.15;2.05;;;;;;;;;;5012147;28;20037;-75
2022/06/21 04:21:05;;;;;;;3.58;1.95;;;;;;;;;;5013363;28;20143;-75
2022/06/21 04:23:46;;;;;;;1.83;1.73;;;;;;;;;;4994969;28;20472;-75
2022/06/21 04:26:11;;;;;;;2.10;2.00;;;;;;;;;;5012138;28;20030;-75
2022/06/21 04:28:39;;;;;;;2.20;2.10;;;;;;;;;;5012330;28;20748;-70
2022/06/21 04:31:16;;;;;;;1.80;1.67;;;;;;;;;;4995313;28;20099;-69
2022/06/21 04:33:57;;;;;;;2.33;1.98;;;;;;;;;;5012403;28;20022;-69
2022/06/21 04:36:36;;;;;;;2.53;2.35;;;;;;;;;;5012360;28;20029;-69
2022/06/21 04:39:12;;;;;;;3.05;1.98;;;;;;;;;;5012599;28;20456;-69
2022/06/21 04:41:45;;;;;;;2.50;1.95;;;;;;;;;;5012409;28;20034;-69
2022/06/21 04:44:14;;;;;;;2.58;2.28;;;;;;;;;;5012783;28;20456;-69
2022/06/21 04:46:40;;;;;;;2.42;2.22;;;;;;;;;;5013630;28;20026;-69
2022/06/21 04:49:08;;;;;;;2.17;2.00;;;;;;;;;;4995807;28;20029;-69
2022/06/21 04:51:37;;;;;;;2.03;1.92;;;;;;;;;;5012443;28;20100;-69
2022/06/21 04:54:05;;;;;;;3.17;2.58;;;;;;;;;;4994992;28;20037;-69
2022/06/21 04:56:41;;;;;;;2.88;2.60;;;;;;;;;;5012399;28;20408;-69
2022/06/21 04:59:17;;;;;;;2.58;2.20;;;;;;;;;;4994595;28;20165;-64
2022/06/21 05:01:42;;;;;;;3.15;2.38;;;;;;;;;;5013103;28;20112;-65
2022/06/21 05:04:11;;;;;;;2.75;2.28;;;;;;;;;;4995694;28;20061;-64
2022/06/21 05:06:37;;;;;;;3.55;2.60;;;;;;;;;;5016915;28;20022;-72
2022/06/21 05:09:03;;;;;;;2.53;2.35;;;;;;;;;;5016657;28;20463;-71
2022/06/21 05:11:29;;;;;;;3.13;2.83;;;;;;;;;;4999453;28;20467;-64
2022/06/21 05:13:55;;;;;;;2.28;2.17;;;;;;;;;;5016879;28;20025;-64
2022/06/21 05:16:23;;;;;;;2.42;2.13;;;;;;;;;;5016878;28;20032;-64
2022/06/21 05:18:54;;;;;;;2.78;2.22;;;;;;;;;;5016575;28;20566;-64
2022/06/21 05:21:25;;;;;;;2.50;2.30;;;;;;;;;;5016298;28;20026;-65
2022/06/21 05:23:51;;;;;;;3.45;2.33;;;;;;;;;;4998954;28;20398;-65
2022/06/21 05:26:27;;;;;;;2.55;2.33;;;;;;;;;;5016574;28;20017;-65
2022/06/21 05:28:58;;;;;;;4.00;2.67;;;;;;;;;;5017046;28;20036;-65
2022/06/21 05:31:30;;;;;;;3.45;2.17;;;;;;;;;;5016408;28;20034;-65
2022/06/21 05:34:01;;;;;;;3.58;2.20;;;;;;;;;;5016010;28;20076;-65
2022/06/21 05:36:38;;;;;;;3.03;2.10;;;;;;;;;;5014525;28;20030;-65
2022/06/21 05:39:08;;;;;;;2.05;1.85;;;;;;;;;;4997663;28;20112;-65
2022/06/21 05:41:37;;;;;;;2.42;1.92;;;;;;;;;;5015616;28;20109;-65
2022/06/21 05:44:02;;;;;;;2.60;2.15;;;;;;;;;;5015519;28;20104;-65
2022/06/21 05:46:29;;;;;;;2.15;1.95;;;;;;;;;;4997983;28;20113;-64
2022/06/21 05:48:56;;;;;;;1.95;1.85;;;;;;;;;;5015677;28;20021;-65
2022/06/21 05:51:26;;;;;;;3.67;1.83;;;;;;;;;;5015253;28;20030;-65
2022/06/21 05:54:04;;;;;;;2.08;1.90;;;;;;;;;;5015908;28;20037;-65
2022/06/21 05:56:31;;;;;;;1.77;1.60;;;;;;;;;;5016651;28;20510;-64
2022/06/21 05:58:59;;;;;;;1.85;1.75;;;;;;;;;;5016079;28;20025;-65
2022/06/21 06:01:31;;;;;;;2.67;1.67;;;;;;;;;;5016224;28;20460;-65
2022/06/21 06:04:05;;;;;;;1.55;1.42;;;;;;;;;;5016237;28;20037;-65
2022/06/21 06:06:34;;;;;;;1.60;1.40;;;;;;;;;;4998342;28;20130;-65
2022/06/21 06:09:01;;;;;;;1.60;1.50;;;;;;;;;;5015906;28;20041;-65
2022/06/21 06:11:57;;;;;;;1.50;1.40;;;;;;;;;;5016160;28;20022;-65
2022/06/21 06:14:14;;;;;;;1.73;1.63;;;;;;;;;;4997725;28;20125;-65
2022/06/21 06:16:41;;;;;;;1.40;1.30;;;;;;;;;;5015842;28;20371;-65
2022/06/21 06:19:17;;;;;;;3.05;1.60;;;;;;;;;;5015705;28;20018;-65
2022/06/21 06:21:50;;;;;;;1.52;1.42;;;;;;;;;;5015849;28;20041;-65
2022/06/21 06:24:19;;;;;;;1.63;1.52;;;;;;;;;;5015839;28;20045;-64
2022/06/21 06:26:47;;;;;;;2.00;1.50;;;;;;;;;;5015564;28;20022;-64
2022/06/21 06:29:18;;;;;;;3.35;1.17;;;;;;;;;;5015629;28;20038;-65
2022/06/21 06:31:53;;;;;;;1.58;1.40;;;;;;;;;;5015742;28;20061;-64
2022/06/21 06:34:21;;;;;;;1.27;1.17;;;;;;;;;;4997851;28;20033;-65
2022/06/21 06:36:49;;;;;;;1.00;1.00;;;;;;;;;;5015932;28;20375;-65
2022/06/21 06:39:35;;;;;;;1.60;1.20;;;;;;;;;;5015289;28;20109;-65
2022/06/21 06:42:03;;;;;;;2.78;1.10;;;;;;;;;;5014804;28;20096;-65
2022/06/21 06:44:31;;;;;;;1.33;1.00;;;;;;;;;;5015484;28;20105;-65
2022/06/21 06:46:59;;;;;;;1.55;1.00;;;;;;;;;;5015143;28;20030;-65
2022/06/21 06:49:35;;;;;;;3.08;1.15;;;;;;;;;;5015362;28;20014;-65
2022/06/21 06:52:09;;;;;;;0.80;0.80;;;;;;;;;;5015370;28;20033;-65
2022/06/21 06:54:40;;;;;;;2.15;1.10;;;;;;;;;;5015047;28;20500;-65
2022/06/21 06:57:16;;;;;;;0.95;0.90;;;;;;;;;;5015543;28;20528;-65
2022/06/21 06:59:43;;;;;;;0.80;0.80;;;;;;;;;;5015231;28;20030;-65
2022/06/21 07:04:37;;;;;;;1.80;0.77;;;;;;;;;;5032904;28;20114;-71
2022/06/21 07:07:06;;;;;;;1.52;1.23;;;;;;;;;;5034847;28;20479;-71
2022/06/21 07:09:42;;;;;;;1.92;1.05;;;;;;;;;;5034539;28;20075;-71
2022/06/21 07:12:25;;;;;;;4.13;1.35;;;;;;;;;;5017480;28;20030;-71
2022/06/21 07:14:51;;;;;;;0.85;0.85;;;;;;;;;;5034991;28;20029;-71
2022/06/21 07:17:25;;;;;;;1.55;1.25;;;;;;;;;;5034652;28;20017;-71
2022/06/21 07:19:52;;;;;;;2.03;1.38;;;;;;;;;;5017006;28;20498;-71
2022/06/21 07:22:23;;;;;;;1.95;1.27;;;;;;;;;;5016580;28;20452;-71
2022/06/21 07:25:09;;;;;;;1.10;0.82;;;;;;;;;;5016555;28;20042;-71
2022/06/21 07:27:36;;;;;;;5.10;1.50;;;;;;;;;;5019626;28;20045;-71
2022/06/21 07:30:12;;;;;;;2.92;0.95;;;;;;;;;;5034428;28;20472;-71
2022/06/21 07:32:40;;;;;;;1.67;0.90;;;;;;;;;;5034420;28;20037;-71
2022/06/21 07:35:16;;;;;;;1.15;1.05;;;;;;;;;;5034139;28;20029;-71
2022/06/21 07:37:44;;;;;;;1.23;0.80;;;;;;;;;;5034358;28;20447;-71
2022/06/21 07:40:13;;;;;;;1.40;1.00;;;;;;;;;;5034007;28;20052;-71
2022/06/21 07:42:42;;;;;;;1.83;0.80;;;;;;;;;;5033928;28;20051;-71
2022/06/21 07:45:11;;;;;;;1.05;0.80;;;;;;;;;;5016238;28;20030;-71
2022/06/21 07:47:36;;;;;;;2.53;0.90;;;;;;;;;;5034491;28;20014;-71
2022/06/21 07:50:10;;;;;;;0.82;0.82;;;;;;;;;;5016154;28;20044;-71
2022/06/21 07:52:38;;;;;;;1.60;0.82;;;;;;;;;;5034104;28;20564;-71
2022/06/21 07:55:11;;;;;;;1.13;0.80;;;;;;;;;;5033800;28;20028;-71
2022/06/21 07:57:39;;;;;;;0.80;0.80;;;;;;;;;;5033804;28;20443;-71
2022/06/21 08:00:10;;;;;;;0.70;0.70;;;;;;;;;;5033767;28;20057;-71
2022/06/21 08:08:11;;;;;;;1.20;0.90;;;;;;;;;;5033929;28;20438;-72
2022/06/21 08:10:40;;;;;;;0.63;0.63;;;;;;;;;;5033936;28;20020;-71
2022/06/21 08:13:05;;;;;;;1.30;0.80;;;;;;;;;;5033620;28;20033;-70
2022/06/21 08:15:34;;;;;;;0.70;0.70;;;;;;;;;;5033867;28;20105;-70
2022/06/21 08:18:02;;;;;;;4.13;1.05;;;;;;;;;;5016289;28;20411;-71
2022/06/21 08:20:33;;;;;;;1.05;0.80;;;;;;;;;;5033568;28;20100;-70
2022/06/21 08:23:08;;;;;;;1.10;0.80;;;;;;;;;;5033754;28;20025;-71
2022/06/21 08:25:37;;;;;;;1.05;0.70;;;;;;;;;;5015736;28;20025;-70
2022/06/21 08:28:09;;;;;;;0.70;0.70;;;;;;;;;;5033525;28;20018;-70
2022/06/21 08:30:34;;;;;;;0.60;0.60;;;;;;;;;;5034013;28;20029;-71
2022/06/21 08:33:12;;;;;;;0.75;0.65;;;;;;;;;;5033726;28;20018;-70
2022/06/21 08:35:40;;;;;;;0.70;0.70;;;;;;;;;;5033676;28;20029;-70
2022/06/21 08:38:05;;;;;;;1.30;0.80;;;;;;;;;;5033667;28;20044;-70
2022/06/21 08:40:43;;;;;;;2.05;0.85;;;;;;;;;;5037586;28;20064;-70
2022/06/21 08:43:27;;;;;;;1.08;0.85;;;;;;;;;;5003173;28;20052;-70
2022/06/21 08:45:55;;;;;;;0.98;0.60;;;;;;;;;;5037510;28;20025;-70
2022/06/21 08:48:39;;;;;;;1.23;0.82;;;;;;;;;;5037737;28;20013;-72
2022/06/21 08:51:05;;;;;;;2.28;0.90;;;;;;;;;;5037430;28;20152;-71
2022/06/21 08:53:36;;;;;;;2.20;1.00;;;;;;;;;;5037137;28;20478;-70
2022/06/21 08:56:01;;;;;;;1.25;0.85;;;;;;;;;;5050132;22;20049;-70
2022/06/21 08:58:32;;;;;;;4.28;0.90;;;;;;;;;;5037562;28;20375;-70
2022/06/21 09:01:04;;;;;;;1.90;0.85;;;;;;;;;;5038016;28;20431;-70
2022/06/21 09:03:44;;;;;;;1.42;0.85;;;;;;;;;;5037111;28;20025;-70
2022/06/21 09:06:26;;;;;;;2.53;0.90;;;;;;;;;;5037139;28;20084;-70
2022/06/21 09:08:59;;;;;;;1.70;0.77;;;;;;;;;;5037056;28;20036;-70
2022/06/21 09:11:24;;;;;;;0.95;0.90;;;;;;;;;;5037033;28;20087;-70
2022/06/21 09:13:56;;;;;;;0.93;0.80;;;;;;;;;;5036755;28;20411;-70
2022/06/21 09:16:29;;;;;;;2.13;0.75;;;;;;;;;;5036938;28;20490;-70
2022/06/21 09:18:58;;;;;;;0.73;0.60;;;;;;;;;;5036895;28;20048;-70
2022/06/21 09:21:46;;;;;;;0.60;0.60;;;;;;;;;;5036813;28;20041;-70
2022/06/21 09:24:19;;;;;;;0.73;0.73;;;;;;;;;;5036828;28;20463;-70
2022/06/21 09:26:52;;;;;;;1.17;0.52;;;;;;;;;;5036764;28;20040;-70
2022/06/21 09:29:26;;;;;;;1.80;0.82;;;;;;;;;;5019151;28;20095;-70
2022/06/21 09:32:14;;;;;;;2.00;0.68;;;;;;;;;;5036626;28;20079;-71
2022/06/21 09:34:49;;;;;;;0.80;0.50;;;;;;;;;;5025708;28;20503;-70
2022/06/21 09:37:15;;;;;;;1.23;0.70;;;;;;;;;;5036551;28;20029;-71
2022/06/21 09:39:50;;;;;;;1.95;0.80;;;;;;;;;;5036202;28;20104;-71
2022/06/21 09:42:22;;;;;;;0.95;0.57;;;;;;;;;;5036363;28;20048;-71
2022/06/21 09:44:56;;;;;;;0.70;0.68;;;;;;;;;;5036410;28;20089;-71
2022/06/21 09:47:34;;;;;;;1.13;0.82;;;;;;;;;;5036614;28;20052;-71
2022/06/21 09:49:59;;;;;;;1.17;0.60;;;;;;;;;;5018571;28;20025;-71
2022/06/21 09:52:34;;;;;;;0.88;0.80;;;;;;;;;;5035837;28;20384;-71
2022/06/21 09:54:59;;;;;;;1.10;0.80;;;;;;;;;;5018230;28;20140;-71
2022/06/21 09:57:28;;;;;;;0.95;0.70;;;;;;;;;;5035814;28;20081;-71
2022/06/21 10:00:01;;;;;;;1.85;1.00;;;;;;;;;;5018744;28;20091;-71
2022/06/21 10:02:39;;;;;;;1.67;0.68;;;;;;;;;;5036062;28;20041;-71
2022/06/21 10:05:24;;;;;;;0.90;0.90;;;;;;;;;;5018707;28;20065;-71
2022/06/21 10:07:52;;;;;;;1.10;0.90;;;;;;;;;;5035146;28;20451;-70
2022/06/21 10:10:35;;;;;;;1.13;0.80;;;;;;;;;;5035664;28;20459;-71
2022/06/21 10:13:03;;;;;;;0.68;0.68;;;;;;;;;;5035919;28;20026;-71
2022/06/21 10:15:35;;;;;;;0.70;0.70;;;;;;;;;;5035878;28;20028;-71
2022/06/21 10:18:15;;;;;;;0.80;0.80;;;;;;;;;;5035545;28;20029;-72
2022/06/21 10:20:48;;;;;;;2.38;0.82;;;;;;;;;;5018373;28;20459;-71
2022/06/21 10:23:33;;;;;;;0.85;0.50;;;;;;;;;;5035670;28;20033;-71
2022/06/21 10:26:05;;;;;;;0.82;0.65;;;;;;;;;;5018349;28;20371;-70
2022/06/21 10:28:45;;;;;;;1.58;0.70;;;;;;;;;;5035881;28;20443;-71
2022/06/21 10:31:13;;;;;;;1.63;0.93;;;;;;;;;;5035571;28;20113;-71
2022/06/21 10:33:39;;;;;;;2.25;0.75;;;;;;;;;;5035509;28;20021;-71
2022/06/21 10:36:19;;;;;;;1.10;0.70;;;;;;;;;;5035205;28;20083;-71
2022/06/21 10:38:52;;;;;;;3.30;0.95;;;;;;;;;;5035451;28;20352;-71
2022/06/21 10:41:37;;;;;;;0.60;0.60;;;;;;;;;;5017373;28;20103;-70
2022/06/21 10:44:17;;;;;;;0.75;0.70;;;;;;;;;;5035308;28;20037;-71
2022/06/21 10:46:49;;;;;;;1.63;0.77;;;;;;;;;;5017397;28;20036;-71
2022/06/21 10:49:23;;;;;;;0.95;0.85;;;;;;;;;;5035481;28;20144;-71
2022/06/21 10:52:05;;;;;;;1.08;0.80;;;;;;;;;;5035154;28;20113;-71
2022/06/21 10:54:30;;;;;;;1.35;0.80;;;;;;;;;;5035109;28;20040;-71
2022/06/21 10:57:13;;;;;;;1.00;0.63;;;;;;;;;;5034770;28;20128;-71
2022/06/21 11:02:36;;;;;;;1.40;0.80;;;;;;;;;;5034011;28;20068;-71
2022/06/21 11:05:21;;;;;;;0.60;0.60;;;;;;;;;;5034916;28;20108;-71
2022/06/21 11:07:47;;;;;;;0.90;0.90;;;;;;;;;;5016297;28;20049;-63
2022/06/21 11:10:17;;;;;;;1.95;0.77;;;;;;;;;;5016826;28;20017;-63
2022/06/21 11:13:05;;;;;;;1.30;0.80;;;;;;;;;;5034815;28;20029;-63
2022/06/21 11:15:49;;;;;;;1.05;0.80;;;;;;;;;;5034472;28;20056;-70
2022/06/21 11:18:21;;;;;;;0.80;0.70;;;;;;;;;;5034654;28;20106;-71
2022/06/21 11:21:07;;;;;;;2.22;0.90;;;;;;;;;;5034311;28;20360;-71
2022/06/21 11:23:36;;;;;;;0.90;0.90;;;;;;;;;;5034507;28;20033;-71
2022/06/21 11:26:10;;;;;;;1.13;1.00;;;;;;;;;;5034782;28;20024;-71
2022/06/21 11:28:36;;;;;;;0.85;0.85;;;;;;;;;;5034206;28;20033;-71
2022/06/21 11:31:04;;;;;;;1.20;0.95;;;;;;;;;;5034452;28;20028;-71
2022/06/21 11:33:33;;;;;;;1.63;0.85;;;;;;;;;;5034429;28;20052;-71
2022/06/21 11:36:11;;;;;;;1.00;0.88;;;;;;;;;;5016404;28;20072;-71
2022/06/21 11:38:46;;;;;;;0.85;0.80;;;;;;;;;;5034339;28;20491;-71
2022/06/21 11:44:29;;;;;;;1.38;0.93;;;;;;;;;;5033974;28;20030;-71
2022/06/21 11:47:03;;;;;;;1.02;0.70;;;;;;;;;;5034237;28;20040;-71
2022/06/21 11:49:32;;;;;;;1.38;0.82;;;;;;;;;;4999899;28;20548;-71
2022/06/21 11:52:20;;;;;;;2.83;0.70;;;;;;;;;;5033879;28;20418;-71
2022/06/21 11:54:49;;;;;;;0.98;0.60;;;;;;;;;;5033498;28;20033;-71
2022/06/21 11:57:38;;;;;;;0.73;0.70;;;;;;;;;;5033717;28;20040;-71
2022/06/21 12:00:05;;;;;;;0.90;0.80;;;;;;;;;;5023065;28;20037;-71
2022/06/21 12:02:35;;;;;;;0.60;0.60;;;;;;;;;;5033906;28;20352;-71
2022/06/21 12:05:02;;;;;;;2.22;0.70;;;;;;;;;;5033994;28;20496;-71
2022/06/21 12:07:48;;;;;;;0.90;0.80;;;;;;;;;;5033688;28;20028;-71
2022/06/21 12:10:34;;;;;;;0.70;0.55;;;;;;;;;;5033945;28;20026;-71
2022/06/21 12:13:25;;;;;;;1.08;0.80;;;;;;;;;;5032923;28;20060;-71
2022/06/21 12:16:00;;;;;;;0.70;0.70;;;;;;;;;;5029696;28;20045;-71
2022/06/21 12:18:28;;;;;;;0.73;0.60;;;;;;;;;;5033583;28;20030;-71
2022/06/21 12:21:07;;;;;;;1.95;0.80;;;;;;;;;;5033586;28;20096;-71
2022/06/21 12:23:44;;;;;;;0.50;0.50;;;;;;;;;;5033742;28;20029;-71
2022/06/21 12:26:14;;;;;;;0.88;0.70;;;;;;;;;;5034004;28;20033;-71
2022/06/21 12:28:40;;;;;;;0.68;0.60;;;;;;;;;;5033480;28;20022;-71
2022/06/21 12:31:26;;;;;;;1.13;0.90;;;;;;;;;;5033431;28;20486;-71
2022/06/21 12:34:01;;;;;;;0.88;0.80;;;;;;;;;;5016131;28;20029;-71
2022/06/21 12:36:32;;;;;;;1.13;0.60;;;;;;;;;;5033683;28;20476;-71
2022/06/21 12:39:01;;;;;;;1.98;0.68;;;;;;;;;;5046540;23;20041;-71
2022/06/21 12:41:41;;;;;;;0.80;0.80;;;;;;;;;;5033876;28;20040;-71
2022/06/21 12:44:07;;;;;;;;;;;;;;;;;;5034307;28;20379;-71
2022/06/21 12:46:35;;;;;;;0.93;0.70;;;;;;;;;;5033354;28;19905;-71
2022/06/21 12:49:09;;;;;;;3.58;0.60;;;;;;;;;;5016010;28;20491;-71
2022/06/21 12:51:34;;;;;;;0.70;0.70;;;;;;;;;;5031639;28;20088;-71
2022/06/21 12:54:18;;;;;;;0.80;0.70;;;;;;;;;;5031788;28;20029;-71
2022/06/21 12:56:56;;;;;;;0.65;0.65;;;;;;;;;;5033530;28;20506;-71
2022/06/21 12:59:21;;;;;;;1.42;0.80;;;;;;;;;;5033373;28;20032;-73
2022/06/21 13:02:05;;;;;;;1.10;0.60;;;;;;;;;;5031435;28;20025;-73
2022/06/21 13:04:44;;;;;;;0.50;0.50;;;;;;;;;;5033132;28;20025;-73
2022/06/21 13:07:12;;;;;;;0.63;0.63;;;;;;;;;;5033371;28;20057;-73
2022/06/21 13:09:53;;;;;;;0.65;0.60;;;;;;;;;;5032606;28;20357;-73
2022/06/21 13:12:28;;;;;;;1.10;0.70;;;;;;;;;;5012769;28;20098;-72
2022/06/21 13:15:12;;;;;;;2.08;0.70;;;;;;;;;;5030000;28;20033;-72
2022/06/21 13:17:53;;;;;;;2.47;0.70;;;;;;;;;;5029686;28;20098;-72
2022/06/21 13:20:29;;;;;;;0.70;0.60;;;;;;;;;;5031959;28;20128;-72
2022/06/21 13:22:54;;;;;;;0.57;0.57;;;;;;;;;;5031854;28;20033;-72
2022/06/21 13:25:29;;;;;;;1.38;0.85;;;;;;;;;;5014463;28;20026;-73
2022/06/21 13:28:13;;;;;;;0.95;0.70;;;;;;;;;;5035446;28;20041;-75
2022/06/21 13:30:48;;;;;;;0.70;0.52;;;;;;;;;;5035445;28;20036;-76
2022/06/21 13:33:15;;;;;;;1.42;0.70;;;;;;;;;;5017802;28;20061;-77
2022/06/21 13:35:46;;;;;;;1.50;0.70;;;;;;;;;;5034997;28;20022;-76
2022/06/21 13:38:16;;;;;;;0.70;0.70;;;;;;;;;;5032073;28;20537;-74
2022/06/21 13:40:48;;;;;;;0.82;0.70;;;;;;;;;;5035025;28;20095;-74
2022/06/21 13:43:32;;;;;;;1.50;0.70;;;;;;;;;;5035463;28;20076;-73
2022/06/21 13:46:04;;;;;;;0.55;0.55;;;;;;;;;;5035119;28;20101;-74
2022/06/21 13:48:35;;;;;;;3.33;0.60;;;;;;;;;;5035237;28;20087;-74
2022/06/21 13:51:04;;;;;;;0.60;0.60;;;;;;;;;;5017383;28;20459;-74
2022/06/21 13:53:40;;;;;;;0.50;0.50;;;;;;;;;;5035008;28;20100;-75
2022/06/21 13:56:08;;;;;;;3.00;0.70;;;;;;;;;;5032289;28;20508;-72
2022/06/21 13:58:42;;;;;;;2.17;0.60;;;;;;;;;;5013981;28;20048;-76
2022/06/21 14:01:24;;;;;;;0.60;0.60;;;;;;;;;;5015789;28;20468;-75
2022/06/21 14:04:08;;;;;;;0.90;0.60;;;;;;;;;;5017032;28;20125;-75
2022/06/21 14:06:34;;;;;;;0.70;0.70;;;;;;;;;;5027852;28;20033;-75
2022/06/21 14:09:11;;;;;;;2.05;0.70;;;;;;;;;;5015217;28;20501;-78
2022/06/21 14:11:40;;;;;;;0.68;0.68;;;;;;;;;;5033252;28;20463;-76
2022/06/21 14:14:10;;;;;;;1.98;0.80;;;;;;;;;;5034298;28;20021;-73
2022/06/21 14:16:45;;;;;;;1.42;0.60;;;;;;;;;;5034292;28;20112;-74
2022/06/21 14:19:15;;;;;;;0.60;0.50;;;;;;;;;;5032342;28;20029;-74
2022/06/21 14:22:00;;;;;;;3.22;0.57;;;;;;;;;;5015203;28;20380;-74
2022/06/21 14:24:40;;;;;;;0.73;0.60;;;;;;;;;;5015309;28;20494;-75
2022/06/21 14:27:22;;;;;;;1.05;0.60;;;;;;;;;;5025179;28;20033;-73
2022/06/21 14:29:51;;;;;;;2.90;0.77;;;;;;;;;;5029936;28;20025;-68
2022/06/21 14:32:22;;;;;;;1.65;0.52;;;;;;;;;;5027632;28;20108;-67
2022/06/21 14:34:50;;;;;;;1.17;0.60;;;;;;;;;;5030150;28;20066;-68
2022/06/21 14:37:34;;;;;;;2.70;0.80;;;;;;;;;;5030556;28;20039;-67
2022/06/21 14:40:18;;;;;;;0.65;0.65;;;;;;;;;;5030404;28;20048;-67
2022/06/21 14:42:49;;;;;;;0.60;0.60;;;;;;;;;;5033301;28;20534;-68
2022/06/21 14:45:19;;;;;;;0.90;0.75;;;;;;;;;;5034736;28;20033;-66
2022/06/21 14:47:57;;;;;;;2.25;0.60;;;;;;;;;;4996868;28;20037;-68
2022/06/21 14:50:28;;;;;;;1.58;0.60;;;;;;;;;;5029990;28;20029;-68
2022/06/21 14:52:58;;;;;;;0.90;0.63;;;;;;;;;;5034115;28;20047;-68
2022/06/21 14:55:24;;;;;;;;;;;;;;;;;;5034060;28;20029;-64
2022/06/21 14:58:01;;;;;;;0.50;0.50;;;;;;;;;;5016024;28;19991;-65
2022/06/21 15:00:45;;;;;;;2.00;0.70;;;;;;;;;;5034424;28;20030;-65
2022/06/21 15:03:14;;;;;;;1.23;0.68;;;;;;;;;;5033777;28;20047;-73
2022/06/21 15:05:59;;;;;;;1.85;0.60;;;;;;;;;;5033403;28;20360;-71
2022/06/21 15:08:42;;;;;;;0.60;0.60;;;;;;;;;;5031653;28;20048;-72
2022/06/21 15:11:18;;;;;;;0.88;0.60;;;;;;;;;;5033793;28;20022;-72
2022/06/21 15:13:50;;;;;;;2.00;0.68;;;;;;;;;;5033793;28;20112;-71
2022/06/21 15:16:15;;;;;;;1.65;0.80;;;;;;;;;;5013145;28;20499;-71
2022/06/21 15:18:49;;;;;;;0.50;0.50;;;;;;;;;;5031129;28;20036;-72
2022/06/21 15:21:20;;;;;;;0.75;0.63;;;;;;;;;;5031050;28;20053;-71
2022/06/21 15:23:50;;;;;;;2.00;0.50;;;;;;;;;;5030636;28;20044;-71
2022/06/21 15:26:27;;;;;;;1.58;0.57;;;;;;;;;;5030969;28;20034;-72
2022/06/21 15:28:55;;;;;;;0.43;0.43;;;;;;;;;;5030762;28;20063;-71